createdAt,value
2022-10-21T00:03:06.382Z,11.82
2022-10-21T00:13:08.940Z,11.07
2022-10-21T00:23:11.205Z,11.10
2022-10-21T00:33:14.075Z,8.05
2022-10-21T00:43:17.276Z,8.90
2022-10-21T00:53:20.269Z,16.13
2022-10-21T01:03:25.714Z,15.23
2022-10-21T01:13:46.713Z,12.02
2022-10-21T01:24:26.636Z,7.82
2022-10-21T01:34:56.906Z,8.50
2022-10-21T01:45:33.668Z,7.85
2022-10-21T01:55:37.373Z,12.10
2022-10-21T02:05:40.833Z,7.97
2022-10-21T02:15:44.142Z,8.80
2022-10-21T02:25:50.796Z,11.53
2022-10-21T02:36:02.904Z,12.37
2022-10-21T02:46:11.062Z,17.73
2022-10-21T02:56:13.298Z,19.35
2022-10-21T03:06:15.882Z,21.02
2022-10-21T03:26:25.997Z,21.95
2022-10-21T03:36:28.733Z,21.45
2022-10-21T03:46:31.308Z,20.67
2022-10-21T03:56:33.792Z,22.60
2022-10-21T04:06:36.387Z,20.80
2022-10-21T04:16:39.168Z,25.55
2022-10-21T04:26:45.038Z,23.08
2022-10-21T04:36:47.760Z,17.92
2022-10-21T04:46:51.079Z,19.98
2022-10-21T04:56:53.481Z,18.93
2022-10-21T05:06:55.873Z,19.98
2022-10-21T05:16:58.138Z,17.48
2022-10-21T05:27:00.439Z,12.65
2022-10-21T05:37:02.982Z,20.27
2022-10-21T05:47:05.454Z,11.63
2022-10-21T05:57:08.248Z,12.45
2022-10-21T06:07:11.116Z,12.45
2022-10-21T06:17:13.627Z,9.20
2022-10-21T06:27:16.252Z,13.32
2022-10-21T06:37:20.049Z,12.82
2022-10-21T06:47:23.607Z,13.75
2022-10-21T06:57:28.050Z,15.13
2022-10-21T07:07:30.976Z,12.52
2022-10-21T07:17:33.501Z,8.55
2022-10-21T07:27:37.280Z,7.60
2022-10-21T07:37:42.569Z,5.55
2022-10-21T07:47:49.229Z,3.28
2022-10-21T07:57:53.627Z,1.92
2022-10-21T08:07:59.351Z,2.72
2022-10-21T08:18:03.354Z,2.53
2022-10-21T08:28:07.469Z,0.82
2022-10-21T08:48:18.999Z,0.70
2022-10-21T08:58:24.607Z,1.90
2022-10-21T09:08:36.422Z,3.55
2022-10-21T09:18:56.147Z,1.10
2022-10-21T09:29:16.504Z,0.93
2022-10-21T09:39:35.947Z,0.95
2022-10-21T09:50:05.950Z,0.73
2022-10-21T10:00:06.201Z,0.70
2022-10-21T10:10:32.974Z,0.85
2022-10-21T10:20:35.950Z,0.88
2022-10-21T10:30:56.848Z,3.10
2022-10-21T10:41:11.770Z,3.37
2022-10-21T10:51:35.979Z,2.92
2022-10-21T11:01:52.075Z,2.90
2022-10-21T11:11:57.608Z,4.37
2022-10-21T11:22:33.110Z,7.82
2022-10-21T11:33:00.548Z,5.20
2022-10-21T11:43:23.420Z,5.97
2022-10-21T11:53:39.275Z,4.82
2022-10-21T12:04:07.120Z,4.20
2022-10-21T12:14:35.568Z,3.17
2022-10-21T12:24:48.866Z,3.58
2022-10-21T12:34:55.133Z,5.30
2022-10-21T12:45:00.388Z,3.83
2022-10-21T12:55:10.222Z,3.92
2022-10-21T13:05:13.768Z,6.30
2022-10-21T13:15:22.350Z,3.73
2022-10-21T13:25:25.323Z,4.22
2022-10-21T13:35:43.267Z,3.12
2022-10-21T13:45:50.079Z,5.93
2022-10-21T13:56:01.394Z,2.62
2022-10-21T14:06:05.841Z,2.78
2022-10-21T14:16:10.110Z,2.80
2022-10-21T14:26:13.536Z,5.90
2022-10-21T14:36:28.671Z,1.98
2022-10-21T14:46:39.991Z,2.83
2022-10-21T14:56:44.906Z,5.18
2022-10-21T15:07:02.045Z,3.05
2022-10-21T15:17:10.784Z,3.03
2022-10-21T15:27:37.126Z,5.28
2022-10-21T15:37:40.549Z,2.60
2022-10-21T15:47:43.232Z,3.70
2022-10-21T15:57:45.935Z,3.28
2022-10-21T16:07:49.415Z,2.72
2022-10-21T16:17:55.254Z,4.30
2022-10-21T16:27:57.986Z,2.03
2022-10-21T16:38:00.511Z,4.35
2022-10-21T16:48:06.228Z,3.37
2022-10-21T16:58:08.987Z,6.40
2022-10-21T17:08:11.488Z,3.85
2022-10-21T17:18:15.733Z,2.83
2022-10-21T17:28:18.597Z,6.35
2022-10-21T17:38:21.621Z,3.87
2022-10-21T17:48:26.186Z,4.80
2022-10-21T17:58:30.134Z,5.18
2022-10-21T18:18:37.339Z,5.60
2022-10-21T18:28:40.053Z,3.92
2022-10-21T18:38:42.747Z,3.85
2022-10-21T18:48:45.744Z,6.05
2022-10-21T18:58:48.814Z,4.53
2022-10-21T19:08:51.665Z,4.68
2022-10-21T19:18:55.673Z,6.20
2022-10-21T19:29:04.456Z,12.30
2022-10-21T19:39:07.195Z,3.97
2022-10-21T19:49:12.163Z,4.75
2022-10-21T19:59:14.938Z,4.15
2022-10-21T20:09:17.665Z,1.77
2022-10-21T20:19:20.112Z,3.90
2022-10-21T20:29:22.575Z,2.92
2022-10-21T20:39:25.073Z,1.83
2022-10-21T20:49:27.779Z,2.70
2022-10-21T20:59:30.531Z,3.33
2022-10-21T21:09:50.672Z,1.95
2022-10-21T21:19:55.851Z,1.75
2022-10-21T21:29:59.280Z,3.50
2022-10-21T21:40:02.200Z,3.60
2022-10-21T21:50:05.070Z,3.78
2022-10-21T22:00:08.797Z,2.33
2022-10-21T22:10:12.107Z,1.23
2022-10-21T22:20:14.958Z,2.80
2022-10-21T22:30:17.951Z,0.30
2022-10-21T22:40:20.509Z,0.80
2022-10-21T22:50:23.173Z,1.30
2022-10-21T23:00:25.589Z,0.90
2022-10-21T23:10:27.973Z,0.73
2022-10-21T23:20:30.609Z,1.15
2022-10-21T23:30:32.884Z,0.75
2022-10-21T23:40:35.301Z,1.00
2022-10-21T23:50:42.243Z,3.03
